KABI/ABI METAR and TAF weather

Enter ICAO airport designator
Station Type Date Time Source
KABI METAR 2019/06/27 09:52 UTC NOAA

KABI 270952Z 17008KT 9SM FEW010 23/22 A3015 RMK AO2 SLP180 T02280217


Station Type Date Time Source
KABI Decoded METAR 2019/06/27 09:52 UTC NOAA

ABILENE REGIONAL AIRPORT, TX, United States (KABI) 32-25N 099-41W 548M
Jun 27, 2019 - 05:52 AM EDT / 2019.06.27 0952 UTC
Wind: from the S (170 degrees) at 9 MPH (8 KT):0
Visibility: 9 mile(s):0
Sky conditions: mostly clear
Temperature: 73.0 F (22.8 C)
Dew Point: 71.1 F (21.7 C)
Relative Humidity: 93%
Pressure (altimeter): 30.15 in. Hg (1020 hPa)
ob: KABI 270952Z 17008KT 9SM FEW010 23/22 A3015 RMK AO2 SLP180 T02280217
cycle: 10

Station Type Date Time Source
KABI TAF 2019/06/27 06:22 UTC NOAA

TAF KABI 270520Z 2706/2806 15011KT P6SM FEW080
FM271500 19011KT P6SM SKC
FM272300 16011KT P6SM SCT050

Example: see airport list